Deerbrook, Wisconsin
Current Conditions -  °F | °C
As of 10:55 PM on Saturday 22 Nov 2014 (Local Time) from KAIG Reporting Station
Moderate Fog Moderate Fog  
Wind Chill: 27°   Ceiling: 300
Heat Index: 33°   Visibility: 0.25mi
Dew Point: 33°   Wind: 7mph
Humidity: 100%   Direction: 160°SSE
Pressure: 29.7"   Gusts: NA
Location:  45.23°N, 89.16°W
Report Text: KAIG 230455Z AUTO 16006KT 1/4SM FG OVC003 01/01 A2970 RMK AO2 T00070007
Loading
Personal Weather Stations






























Interactive Weather Map New forecast layout! Learn more

10-Day Weather Forecast

Advertisements
Track Severe Weather on mobile